ETHN

Niederstetten Airport

Niederstetten, Germany
METAR ETHN 231520Z 05012KT 9999 FEW220 M01/M07 Q1015 BLU+
Observed Flight Rules
Feb-23 @ 15:20 UTC (an hour ago) Visual Flight Rules
Wind Visibility Clouds
50° at 12 knots 10,000+ meters
  • Few at 22,000' AGL
Temperatures Readings
Current -1°C / 30°F
Dewpoint -7°C / 19°F
Humidity 64%
Altimeter 29.97" Hg
Pressure 1015 hPa
Elevation 473
METAR ETHN 231520Z 05012KT 9999 FEW220 M01/M07 Q1015 BLU+
Observed Flight Rules
Feb-23 @ 15:20 UTC
(an hour ago)
VFR
Wind Visibility
50° at 12 knots 10,000+ meters
Clouds
  • Few at 22,000' AGL
Temperature Dewpoint
-1°C / 30°F -7°C / 19°F
Humidity Altimeter Pressure
64% 29.97" Hg 1015 hPa